createdAt,value
2019-05-25T00:00:07.229Z,101651.73
2019-05-25T00:02:38.801Z,101656.16
2019-05-25T00:05:10.684Z,101655.72
2019-05-25T00:07:42.128Z,101655.30
2019-05-25T00:10:14.200Z,101654.84
2019-05-25T00:12:45.625Z,101658.41
2019-05-25T00:15:17.227Z,101662.35
2019-05-25T00:17:48.729Z,101666.80
2019-05-25T00:20:20.229Z,101664.19
2019-05-25T00:22:51.798Z,101663.73
2019-05-25T00:25:23.301Z,101668.13
2019-05-25T00:27:54.701Z,101674.38
2019-05-25T00:30:26.479Z,101662.84
2019-05-25T00:32:58.603Z,101660.60
2019-05-25T00:35:30.227Z,101660.96
2019-05-25T00:38:01.800Z,101660.48
2019-05-25T00:40:33.339Z,101655.05
2019-05-25T00:43:05.069Z,101664.34
2019-05-25T00:45:36.516Z,101658.14
2019-05-25T00:48:07.948Z,101660.39
2019-05-25T00:50:39.454Z,101662.62
2019-05-25T00:53:10.942Z,101656.22
2019-05-25T00:55:42.627Z,101654.83
2019-05-25T00:58:14.168Z,101661.05
2019-05-25T01:00:45.659Z,101658.41
2019-05-25T01:03:17.072Z,101659.21
2019-05-25T01:05:48.670Z,101657.44
2019-05-25T01:08:20.164Z,101653.15
2019-05-25T01:10:51.802Z,101652.69
2019-05-25T01:13:23.282Z,101648.20
2019-05-25T01:15:54.806Z,101644.27
2019-05-25T01:18:26.578Z,101642.42
2019-05-25T01:20:58.112Z,101655.64
2019-05-25T01:23:29.601Z,101654.37
2019-05-25T01:26:01.141Z,101645.15
2019-05-25T01:28:32.640Z,101648.21
2019-05-25T01:31:04.470Z,101645.47
2019-05-25T01:33:36.033Z,101652.27
2019-05-25T01:36:07.754Z,101649.62
2019-05-25T01:38:39.884Z,101644.97
2019-05-25T01:41:11.566Z,101650.37
2019-05-25T01:43:43.002Z,101660.53
2019-05-25T01:46:14.534Z,101659.20
2019-05-25T01:48:46.396Z,101663.14
2019-05-25T01:51:18.094Z,101662.69
2019-05-25T01:53:49.885Z,101656.86
2019-05-25T01:56:21.437Z,101661.69
2019-05-25T01:58:53.048Z,101655.08
2019-05-25T02:01:24.522Z,101656.81
2019-05-25T02:03:56.656Z,101649.67
2019-05-25T02:06:28.093Z,101646.59
2019-05-25T02:09:01.083Z,101644.53
2019-05-25T02:11:33.147Z,101643.71
2019-05-25T02:14:04.908Z,101641.09
2019-05-25T02:16:36.572Z,101644.16
2019-05-25T02:19:08.262Z,101638.89
2019-05-25T02:21:39.671Z,101636.22
2019-05-25T02:24:11.163Z,101638.46
2019-05-25T02:26:42.704Z,101638.04
2019-05-25T02:29:14.196Z,101630.01
2019-05-25T02:31:45.698Z,101630.89
2019-05-25T02:34:17.446Z,101636.70
2019-05-25T02:36:48.845Z,101634.98
2019-05-25T02:39:20.610Z,101630.58
2019-05-25T02:41:52.169Z,101627.96
2019-05-25T02:44:23.698Z,101631.31
2019-05-25T02:46:55.141Z,101627.40
2019-05-25T02:49:26.715Z,101627.02
2019-05-25T02:51:58.444Z,101628.83
2019-05-25T02:54:31.010Z,101628.02
2019-05-25T02:57:02.712Z,101625.41
2019-05-25T02:59:34.242Z,101628.62
2019-05-25T03:02:05.803Z,101627.00
2019-05-25T03:04:37.360Z,101630.49
2019-05-25T03:07:09.637Z,101630.89
2019-05-25T03:09:42.575Z,101630.89
2019-05-25T03:12:14.624Z,101635.80
2019-05-25T03:14:46.198Z,101636.25
2019-05-25T03:17:18.111Z,101633.13
2019-05-25T03:19:49.826Z,101635.78
2019-05-25T03:22:21.356Z,101634.91
2019-05-25T03:24:52.902Z,101634.05
2019-05-25T03:27:24.625Z,101644.22
2019-05-25T03:29:56.155Z,101643.77
2019-05-25T03:32:27.736Z,101649.09
2019-05-25T03:34:59.627Z,101646.42
2019-05-25T03:37:31.307Z,101655.30
2019-05-25T03:40:02.884Z,101653.08
2019-05-25T03:42:36.532Z,101647.81
2019-05-25T03:45:08.587Z,101638.98
2019-05-25T03:47:40.183Z,101640.20
2019-05-25T03:50:12.945Z,101639.73
2019-05-25T03:52:44.502Z,101645.56
2019-05-25T03:55:16.521Z,101650.43
2019-05-25T03:57:48.296Z,101652.20
2019-05-25T04:00:34.016Z,101652.27
2019-05-25T04:03:06.361Z,101650.96
2019-05-25T04:05:37.947Z,101656.25
2019-05-25T04:08:09.735Z,101655.75
2019-05-25T04:10:41.262Z,101662.83
2019-05-25T04:13:13.066Z,101661.05
2019-05-25T04:15:44.784Z,101657.00
2019-05-25T04:18:17.127Z,101661.41
2019-05-25T04:20:48.724Z,101660.02
2019-05-25T04:23:21.819Z,101650.69
2019-05-25T04:25:53.324Z,101650.61
2019-05-25T04:28:24.887Z,101655.84
2019-05-25T04:30:56.386Z,101651.28
2019-05-25T04:33:27.856Z,101649.45
2019-05-25T04:35:59.621Z,101651.63
2019-05-25T04:38:31.242Z,101644.06
2019-05-25T04:41:02.691Z,101653.35
2019-05-25T04:43:34.229Z,101657.28
2019-05-25T04:46:06.072Z,101663.53
2019-05-25T04:48:39.691Z,101661.74
2019-05-25T04:51:11.580Z,101666.72
2019-05-25T04:53:43.408Z,101665.17
2019-05-25T04:56:14.940Z,101664.71
2019-05-25T04:58:46.674Z,101669.45
2019-05-25T05:01:22.415Z,101670.45
2019-05-25T05:03:52.531Z,101672.95
2019-05-25T05:06:24.200Z,101676.53
2019-05-25T05:08:55.752Z,101683.42
2019-05-25T05:11:27.592Z,101684.59
2019-05-25T05:13:59.186Z,101684.01
2019-05-25T05:16:30.782Z,101687.05
2019-05-25T05:19:02.380Z,101686.02
2019-05-25T05:21:35.165Z,101688.58
2019-05-25T05:24:06.680Z,101692.48
2019-05-25T05:26:52.829Z,101692.91
2019-05-25T05:29:11.557Z,101696.38
2019-05-25T05:31:44.713Z,101699.89
2019-05-25T05:34:16.119Z,101696.09
2019-05-25T05:36:49.257Z,101705.38
2019-05-25T05:39:21.547Z,101702.22
2019-05-25T05:41:55.973Z,101699.14
2019-05-25T05:44:29.662Z,101707.95
2019-05-25T05:47:03.315Z,101708.33
2019-05-25T05:49:35.027Z,101709.20
2019-05-25T05:52:06.702Z,101710.97
2019-05-25T05:54:39.898Z,101704.27
2019-05-25T05:57:12.804Z,101702.86
2019-05-25T05:59:45.557Z,101707.27
2019-05-25T06:02:19.125Z,101710.95
2019-05-25T06:04:50.730Z,101709.82
2019-05-25T06:07:22.498Z,101721.20
2019-05-25T06:09:53.975Z,101721.14
2019-05-25T06:12:25.501Z,101719.31
2019-05-25T06:14:56.984Z,101724.69
2019-05-25T06:17:28.591Z,101730.29
2019-05-25T06:20:00.365Z,101732.30
2019-05-25T06:22:31.913Z,101737.47
2019-05-25T06:25:05.104Z,101738.80
2019-05-25T06:27:36.737Z,101741.47
2019-05-25T06:30:09.421Z,101738.64
2019-05-25T06:32:40.931Z,101740.79
2019-05-25T06:35:13.302Z,101744.67
2019-05-25T06:37:44.820Z,101754.48
2019-05-25T06:40:16.780Z,101756.58
2019-05-25T06:42:48.715Z,101756.98
2019-05-25T06:45:21.482Z,101761.94
2019-05-25T06:47:52.979Z,101769.41
2019-05-25T06:50:24.504Z,101769.08
2019-05-25T06:52:58.022Z,101775.45
2019-05-25T06:55:29.416Z,101775.95
2019-05-25T06:58:00.972Z,101775.41
2019-05-25T07:00:32.798Z,101774.66
2019-05-25T07:03:04.307Z,101769.84
2019-05-25T07:05:36.038Z,101767.12
2019-05-25T07:08:08.211Z,101761.01
2019-05-25T07:10:39.856Z,101770.82
2019-05-25T07:13:11.315Z,101768.55
2019-05-25T07:15:44.714Z,101760.72
2019-05-25T07:18:16.307Z,101767.20
2019-05-25T07:20:49.022Z,101767.12
2019-05-25T07:23:20.579Z,101762.39
2019-05-25T07:25:52.199Z,101762.99
2019-05-25T07:28:23.708Z,101763.61
2019-05-25T07:30:55.225Z,101762.19
2019-05-25T07:33:29.104Z,101764.39
2019-05-25T07:36:07.340Z,101765.27
2019-05-25T07:38:36.005Z,101769.52
2019-05-25T07:41:07.441Z,101777.09
2019-05-25T07:43:39.238Z,101781.56
2019-05-25T07:46:10.938Z,101785.41
2019-05-25T07:48:42.648Z,101789.38
2019-05-25T07:51:14.208Z,101787.52
2019-05-25T07:53:46.120Z,101784.20
2019-05-25T07:56:17.636Z,101779.66
2019-05-25T07:58:49.256Z,101781.78
2019-05-25T08:01:20.770Z,101787.54
2019-05-25T08:03:53.726Z,101785.89
2019-05-25T08:06:25.232Z,101787.62
2019-05-25T08:08:56.783Z,101791.96
2019-05-25T08:11:29.924Z,101804.58
2019-05-25T08:14:01.494Z,101797.32
2019-05-25T08:16:33.058Z,101806.06
2019-05-25T08:19:04.611Z,101810.41
2019-05-25T08:21:36.767Z,101810.78
2019-05-25T08:24:08.307Z,101811.62
2019-05-25T08:26:39.911Z,101809.73
2019-05-25T08:29:11.834Z,101811.40
2019-05-25T08:31:43.308Z,101814.42
2019-05-25T08:34:14.852Z,101809.86
2019-05-25T08:36:46.852Z,101811.67
2019-05-25T08:39:18.749Z,101810.69
2019-05-25T08:41:50.345Z,101810.54
2019-05-25T08:44:24.751Z,101808.95
2019-05-25T08:46:56.301Z,101811.12
2019-05-25T08:49:27.872Z,101807.77
2019-05-25T08:52:04.150Z,101804.62
2019-05-25T08:54:34.681Z,101806.50
2019-05-25T08:57:06.257Z,101806.98
2019-05-25T08:59:37.962Z,101805.91
2019-05-25T09:02:09.466Z,101807.13
2019-05-25T09:04:41.129Z,101796.34
2019-05-25T09:07:12.602Z,101798.58
2019-05-25T09:09:44.740Z,101799.70
2019-05-25T09:12:16.520Z,101798.14
2019-05-25T09:14:48.222Z,101797.94
2019-05-25T09:17:20.015Z,101800.11
2019-05-25T09:19:53.216Z,101794.75
2019-05-25T09:22:24.749Z,101789.16
2019-05-25T09:24:56.270Z,101788.97
2019-05-25T09:27:27.736Z,101795.68
2019-05-25T09:29:59.452Z,101797.07
2019-05-25T09:32:31.014Z,101798.95
2019-05-25T09:35:02.546Z,101801.30
2019-05-25T09:37:34.247Z,101803.23
2019-05-25T09:40:06.744Z,101807.50
2019-05-25T09:42:39.125Z,101807.02
2019-05-25T09:45:14.168Z,101811.33
2019-05-25T09:47:46.107Z,101805.47
2019-05-25T09:50:18.289Z,101804.46
2019-05-25T09:52:50.827Z,101806.13
2019-05-25T09:55:24.464Z,101806.47
2019-05-25T09:57:56.030Z,101807.06
2019-05-25T10:00:28.161Z,101808.40
2019-05-25T10:02:59.867Z,101810.14
2019-05-25T10:05:31.445Z,101810.92
2019-05-25T10:08:02.898Z,101807.53
2019-05-25T10:10:34.436Z,101810.66
2019-05-25T10:13:06.366Z,101811.60
2019-05-25T10:15:38.067Z,101812.70
2019-05-25T10:18:09.592Z,101809.78
2019-05-25T10:20:41.433Z,101807.10
2019-05-25T10:23:12.971Z,101816.85
2019-05-25T10:25:44.511Z,101817.34
2019-05-25T10:28:17.172Z,101815.64
2019-05-25T10:30:49.766Z,101814.39
2019-05-25T10:33:21.938Z,101803.09
2019-05-25T10:35:53.613Z,101804.97
2019-05-25T10:38:25.106Z,101807.97
2019-05-25T10:40:58.631Z,101811.08
2019-05-25T10:43:30.125Z,101804.43
2019-05-25T10:46:01.640Z,101808.73
2019-05-25T10:48:33.280Z,101811.00
2019-05-25T10:51:04.826Z,101807.92
2019-05-25T10:53:36.531Z,101807.53
2019-05-25T10:56:08.086Z,101804.22
2019-05-25T10:58:39.938Z,101800.59
2019-05-25T11:01:12.491Z,101793.45
2019-05-25T11:03:44.061Z,101801.36
2019-05-25T11:06:15.550Z,101802.51
2019-05-25T11:08:46.966Z,101794.30
2019-05-25T11:11:21.687Z,101793.03
2019-05-25T11:13:53.125Z,101786.51
2019-05-25T11:16:25.947Z,101793.50
2019-05-25T11:18:57.367Z,101792.98
2019-05-25T11:21:29.052Z,101797.64
2019-05-25T11:24:00.563Z,101790.47
2019-05-25T11:26:32.089Z,101791.88
2019-05-25T11:29:04.906Z,101794.78
2019-05-25T11:31:36.732Z,101793.31
2019-05-25T11:34:08.387Z,101795.63
2019-05-25T11:36:39.947Z,101792.00
2019-05-25T11:39:11.463Z,101797.05
2019-05-25T11:41:43.022Z,101797.20
2019-05-25T11:44:14.767Z,101792.87
2019-05-25T11:46:46.319Z,101799.52
2019-05-25T11:49:22.359Z,101800.16
2019-05-25T11:51:51.662Z,101798.77
2019-05-25T11:54:23.194Z,101793.47
2019-05-25T11:56:55.312Z,101797.68
2019-05-25T11:59:26.777Z,101795.09
2019-05-25T12:01:58.357Z,101795.63
2019-05-25T12:04:29.872Z,101797.98
2019-05-25T12:07:01.514Z,101803.55
2019-05-25T12:09:33.067Z,101798.02
2019-05-25T12:12:04.604Z,101799.83
2019-05-25T12:14:36.132Z,101803.03
2019-05-25T12:17:07.665Z,101807.52
2019-05-25T12:19:39.173Z,101805.58
2019-05-25T12:22:10.729Z,101803.69
2019-05-25T12:24:42.508Z,101797.30
2019-05-25T12:27:14.166Z,101803.13
2019-05-25T12:29:45.639Z,101798.48
2019-05-25T12:32:17.605Z,101802.86
2019-05-25T12:34:49.186Z,101795.50
2019-05-25T12:37:20.818Z,101796.08
2019-05-25T12:39:52.380Z,101790.97
2019-05-25T12:42:24.616Z,101788.63
2019-05-25T12:44:56.296Z,101788.63
2019-05-25T12:47:29.467Z,101797.11
2019-05-25T12:50:01.042Z,101799.19
2019-05-25T12:52:35.511Z,101801.27
2019-05-25T12:55:08.267Z,101804.88
2019-05-25T12:57:40.197Z,101801.27
2019-05-25T13:00:16.070Z,101798.66
2019-05-25T13:02:45.924Z,101800.28
2019-05-25T13:05:32.653Z,101797.95
2019-05-25T13:07:50.860Z,101793.04
2019-05-25T13:10:23.026Z,101798.81
2019-05-25T13:12:57.845Z,101796.93
2019-05-25T13:15:29.331Z,101790.71
2019-05-25T13:18:01.116Z,101795.64
2019-05-25T13:20:32.630Z,101790.71
2019-05-25T13:23:05.558Z,101786.77
2019-05-25T13:25:37.971Z,101787.95
2019-05-25T13:28:12.618Z,101790.63
2019-05-25T13:30:44.150Z,101785.91
2019-05-25T13:33:15.981Z,101787.34
2019-05-25T13:35:48.705Z,101781.92
2019-05-25T13:38:20.223Z,101787.14
2019-05-25T13:40:51.977Z,101785.14
2019-05-25T13:43:23.717Z,101782.23
2019-05-25T13:45:55.294Z,101778.86
2019-05-25T13:48:26.929Z,101781.77
2019-05-25T13:50:58.450Z,101771.80
2019-05-25T13:53:32.940Z,101772.93
2019-05-25T13:56:03.411Z,101762.76
2019-05-25T13:58:35.147Z,101767.73
2019-05-25T14:01:08.671Z,101760.09
2019-05-25T14:03:40.295Z,101759.84
2019-05-25T14:06:11.997Z,101753.34
2019-05-25T14:08:43.498Z,101760.78
2019-05-25T14:11:15.046Z,101756.47
2019-05-25T14:13:46.536Z,101756.80
2019-05-25T14:16:17.969Z,101756.48
2019-05-25T14:18:49.803Z,101753.83
2019-05-25T14:21:21.525Z,101754.60
2019-05-25T14:23:55.004Z,101758.26
2019-05-25T14:26:27.044Z,101760.77
2019-05-25T14:28:58.528Z,101757.12
2019-05-25T14:31:44.462Z,101760.83
2019-05-25T14:34:04.565Z,101758.47
2019-05-25T14:36:36.928Z,101750.59
2019-05-25T14:39:10.778Z,101753.56
2019-05-25T14:41:42.331Z,101755.92
2019-05-25T14:44:13.799Z,101751.27
2019-05-25T14:46:45.415Z,101749.52
2019-05-25T14:49:17.020Z,101751.66
2019-05-25T14:51:48.605Z,101744.54
2019-05-25T14:54:20.466Z,101749.03
2019-05-25T14:56:52.020Z,101744.44
2019-05-25T14:59:23.654Z,101740.63
2019-05-25T15:02:02.329Z,101741.04
2019-05-25T15:04:28.783Z,101736.86
2019-05-25T15:07:00.402Z,101732.20
2019-05-25T15:09:31.962Z,101730.73
2019-05-25T15:12:03.550Z,101727.98
2019-05-25T15:14:35.090Z,101732.85
2019-05-25T15:17:07.083Z,101732.59
2019-05-25T15:19:38.622Z,101726.89
2019-05-25T15:22:10.741Z,101724.48
2019-05-25T15:24:42.593Z,101722.52
2019-05-25T15:27:14.177Z,101720.40
2019-05-25T15:29:45.948Z,101719.32
2019-05-25T15:32:20.438Z,101715.19
2019-05-25T15:34:50.828Z,101712.38
2019-05-25T15:37:22.382Z,101713.74
2019-05-25T15:39:57.326Z,101714.51
2019-05-25T15:42:28.908Z,101709.20
2019-05-25T15:45:03.261Z,101706.95
2019-05-25T15:47:35.940Z,101699.63
2019-05-25T15:50:08.878Z,101704.55
2019-05-25T15:52:42.232Z,101703.70
2019-05-25T15:55:14.268Z,101696.11
2019-05-25T15:57:45.897Z,101695.33
2019-05-25T16:00:18.735Z,101693.42
2019-05-25T16:02:51.145Z,101696.19
2019-05-25T16:05:22.817Z,101694.02
2019-05-25T16:07:54.895Z,101693.30
2019-05-25T16:10:27.070Z,101688.70
2019-05-25T16:12:58.816Z,101692.09
2019-05-25T16:15:30.659Z,101695.47
2019-05-25T16:18:02.190Z,101690.19
2019-05-25T16:20:33.817Z,101685.59
2019-05-25T16:23:05.355Z,101686.71
2019-05-25T16:25:36.920Z,101687.16
2019-05-25T16:28:08.479Z,101688.95
2019-05-25T16:30:40.065Z,101694.74
2019-05-25T16:33:14.089Z,101699.61
2019-05-25T16:35:44.920Z,101700.12
2019-05-25T16:38:16.560Z,101699.96
2019-05-25T16:40:49.314Z,101695.77
2019-05-25T16:43:20.956Z,101692.87
2019-05-25T16:45:52.676Z,101688.96
2019-05-25T16:48:24.597Z,101692.59
2019-05-25T16:50:57.862Z,101701.93
2019-05-25T16:53:30.242Z,101693.61
2019-05-25T16:56:02.067Z,101694.67
2019-05-25T16:58:33.655Z,101694.89
2019-05-25T17:01:05.239Z,101703.12
2019-05-25T17:03:37.315Z,101698.94
2019-05-25T17:06:08.829Z,101695.17
2019-05-25T17:08:41.815Z,101696.02
2019-05-25T17:11:15.030Z,101692.84
2019-05-25T17:13:46.967Z,101690.05
2019-05-25T17:16:18.551Z,101692.94
2019-05-25T17:18:52.088Z,101691.98
2019-05-25T17:21:25.309Z,101687.54
2019-05-25T17:23:56.900Z,101695.48
2019-05-25T17:26:28.507Z,101699.45
2019-05-25T17:29:00.766Z,101698.02
2019-05-25T17:31:32.421Z,101697.13
2019-05-25T17:34:03.975Z,101697.27
2019-05-25T17:36:35.577Z,101697.98
2019-05-25T17:39:08.693Z,101692.80
2019-05-25T17:41:40.374Z,101698.50
2019-05-25T17:44:11.857Z,101695.70
2019-05-25T17:46:43.418Z,101693.00
2019-05-25T17:49:14.906Z,101695.42
2019-05-25T17:51:46.599Z,101695.03
2019-05-25T17:54:18.153Z,101694.09
2019-05-25T17:56:49.678Z,101695.66
2019-05-25T17:59:21.174Z,101692.35
2019-05-25T18:01:52.715Z,101694.41
2019-05-25T18:04:25.300Z,101698.16
2019-05-25T18:06:56.976Z,101688.11
2019-05-25T18:09:28.486Z,101684.86
2019-05-25T18:11:59.971Z,101689.17
2019-05-25T18:14:31.723Z,101685.66
2019-05-25T18:17:03.453Z,101684.37
2019-05-25T18:19:34.982Z,101688.20
2019-05-25T18:22:06.569Z,101688.87
2019-05-25T18:24:38.148Z,101690.48
2019-05-25T18:27:09.669Z,101689.55
2019-05-25T18:29:42.454Z,101688.20
2019-05-25T18:32:14.239Z,101685.61
2019-05-25T18:34:45.894Z,101684.54
2019-05-25T18:37:17.441Z,101677.27
2019-05-25T18:39:49.101Z,101674.31
2019-05-25T18:42:20.691Z,101675.34
2019-05-25T18:44:52.463Z,101673.95
2019-05-25T18:47:23.903Z,101676.98
2019-05-25T18:49:55.492Z,101675.67
2019-05-25T18:52:27.236Z,101672.23
2019-05-25T18:54:59.638Z,101674.85
2019-05-25T18:57:31.371Z,101675.98
2019-05-25T19:00:03.857Z,101681.94
2019-05-25T19:02:36.536Z,101678.51
2019-05-25T19:05:10.175Z,101676.64
2019-05-25T19:07:42.006Z,101681.55
2019-05-25T19:10:14.092Z,101681.33
2019-05-25T19:12:45.641Z,101685.07
2019-05-25T19:15:18.457Z,101682.61
2019-05-25T19:17:50.089Z,101688.13
2019-05-25T19:20:21.878Z,101688.30
2019-05-25T19:22:53.547Z,101699.28
2019-05-25T19:25:25.310Z,101698.80
2019-05-25T19:27:56.862Z,101705.39
2019-05-25T19:30:28.378Z,101701.50
2019-05-25T19:32:59.911Z,101699.08
2019-05-25T19:35:31.422Z,101700.04
2019-05-25T19:38:03.063Z,101695.56
2019-05-25T19:40:34.792Z,101694.09
2019-05-25T19:43:06.328Z,101700.42
2019-05-25T19:45:37.903Z,101702.77
2019-05-25T19:48:09.450Z,101700.61
2019-05-25T19:50:41.024Z,101694.71
2019-05-25T19:53:12.540Z,101698.30
2019-05-25T19:55:44.095Z,101707.67
2019-05-25T19:58:15.793Z,101710.84
2019-05-25T20:00:47.340Z,101715.59
2019-05-25T20:03:18.877Z,101711.75
2019-05-25T20:05:51.589Z,101716.98
2019-05-25T20:08:23.236Z,101712.95
2019-05-25T20:10:55.821Z,101714.19
2019-05-25T20:13:27.856Z,101717.66
2019-05-25T20:15:59.614Z,101722.58
2019-05-25T20:18:31.129Z,101713.71
2019-05-25T20:21:02.579Z,101722.47
2019-05-25T20:23:33.992Z,101719.39
2019-05-25T20:26:05.748Z,101714.66
2019-05-25T20:28:37.175Z,101715.63
2019-05-25T20:31:10.195Z,101710.89
2019-05-25T20:33:41.658Z,101717.41
2019-05-25T20:36:16.014Z,101710.37
2019-05-25T20:38:47.496Z,101710.73
2019-05-25T20:41:19.088Z,101712.63
2019-05-25T20:43:52.885Z,101710.81
2019-05-25T20:46:24.455Z,101702.72
2019-05-25T20:48:56.126Z,101712.54
2019-05-25T20:51:27.656Z,101711.63
2019-05-25T20:53:59.444Z,101706.73
2019-05-25T20:56:31.525Z,101708.88
2019-05-25T20:59:03.042Z,101708.84
2019-05-25T21:01:34.670Z,101711.85
2019-05-25T21:04:06.450Z,101708.84
2019-05-25T21:06:38.146Z,101713.42
2019-05-25T21:09:10.005Z,101709.48
2019-05-25T21:11:41.572Z,101709.81
2019-05-25T21:14:13.099Z,101709.80
2019-05-25T21:16:46.225Z,101704.45
2019-05-25T21:19:17.840Z,101708.04
2019-05-25T21:21:49.405Z,101709.11
2019-05-25T21:24:21.261Z,101708.70
2019-05-25T21:26:52.814Z,101705.95
2019-05-25T21:29:24.918Z,101705.90
2019-05-25T21:31:56.601Z,101706.31
2019-05-25T21:34:28.064Z,101703.14
2019-05-25T21:36:59.494Z,101697.37
2019-05-25T21:39:31.011Z,101695.23
2019-05-25T21:42:02.846Z,101705.17
2019-05-25T21:44:34.373Z,101704.22
2019-05-25T21:47:05.907Z,101694.97
2019-05-25T21:49:37.774Z,101691.54
2019-05-25T21:52:09.346Z,101693.42
2019-05-25T21:54:40.936Z,101697.36
2019-05-25T21:57:12.741Z,101696.92
2019-05-25T21:59:44.437Z,101687.11
2019-05-25T22:02:15.969Z,101688.39
2019-05-25T22:04:47.780Z,101682.18
2019-05-25T22:07:19.381Z,101682.62
2019-05-25T22:09:50.944Z,101679.93
2019-05-25T22:12:22.621Z,101679.18
2019-05-25T22:14:54.554Z,101672.50
2019-05-25T22:17:26.442Z,101665.02
2019-05-25T22:19:58.056Z,101660.66
2019-05-25T22:22:29.613Z,101662.52
2019-05-25T22:25:01.116Z,101656.81
2019-05-25T22:27:32.688Z,101658.19
2019-05-25T22:30:04.758Z,101648.41
2019-05-25T22:32:36.340Z,101649.80
2019-05-25T22:35:08.556Z,101649.33
2019-05-25T22:37:40.913Z,101649.74
2019-05-25T22:40:12.427Z,101644.44
2019-05-25T22:42:44.024Z,101646.65
2019-05-25T22:45:15.604Z,101640.91
2019-05-25T22:47:47.367Z,101634.29
2019-05-25T22:50:20.444Z,101631.66
2019-05-25T22:52:51.985Z,101633.48
2019-05-25T22:55:23.577Z,101628.16
2019-05-25T22:57:56.258Z,101631.78
2019-05-25T23:00:27.837Z,101630.03
2019-05-25T23:03:00.180Z,101625.56
2019-05-25T23:05:31.671Z,101626.44
2019-05-25T23:08:04.397Z,101617.59
2019-05-25T23:10:35.798Z,101619.87
2019-05-25T23:13:07.457Z,101613.20
2019-05-25T23:15:38.967Z,101609.27
2019-05-25T23:18:10.555Z,101605.30
2019-05-25T23:20:42.256Z,101600.03
2019-05-25T23:23:15.017Z,101596.97
2019-05-25T23:25:46.601Z,101593.36
2019-05-25T23:28:18.108Z,101578.31
2019-05-25T23:30:49.619Z,101581.48
2019-05-25T23:33:21.158Z,101575.67
2019-05-25T23:35:52.651Z,101572.89
2019-05-25T23:38:26.303Z,101572.83
2019-05-25T23:40:58.084Z,101570.56
2019-05-25T23:43:29.632Z,101562.63
2019-05-25T23:46:01.136Z,101564.45
2019-05-25T23:48:33.386Z,101562.69
2019-05-25T23:51:04.925Z,101558.30
2019-05-25T23:53:36.432Z,101558.30
2019-05-25T23:56:07.943Z,101555.14
2019-05-25T23:58:42.523Z,101559.08
